Clifton, Colorado
Current Conditions -  °F | °C
As of 1:53 AM on Monday 24 Nov 2014 (Local Time) from KGJT Reporting Station
Clear Clear  
Wind Chill: 13°   Ceiling: Unl
Heat Index: 22°   Visibility: 10mi
Dew Point: 15°   Wind: 7mph
Humidity: 75%   Direction: 70°ENE
Pressure: 30.13"   Gusts: NA
Location:  39.09°N, 108.44°W
Report Text: KGJT 240853Z AUTO 07006KT 10SM CLR M06/M09 A3013 RMK AO2 SLP218 T10561094 50000
Loading
Personal Weather Stations






























Interactive Weather Map New forecast layout! Learn more

10-Day Weather Forecast

Advertisements
Track Severe Weather on mobile